Terminal Aerodrome Forecast
Issued by NWS

Home | Current Version | Previous Version | Text Only | Print | Product List | Glossary On
Versions: 1 2 3 4 5 6 7 8 9 10 11 12 13
000
FTUS45 KRIW 282300
TAFRKS
TAF
KRKS 282340Z 2900/2924 26015G23KT P6SM SCT250 WS018/26035KT
     FM290300 24015KT P6SM SKC WS013/26045KT
     FM291700 25020G30KT P6SM FEW120 WS020/26045KT=

USA.gov is the U.S. government's official web portal to all federal, state and local government web resources and services.